sensor_id;sensor_type;location;lat;lon;timestamp;temperature;humidity
48416;DHT22;34227;51.840;4.146;2023-07-29T00:01:50;19.70;91.00
48416;DHT22;34227;51.840;4.146;2023-07-29T00:04:16;19.70;91.00
48416;DHT22;34227;51.840;4.146;2023-07-29T00:06:42;19.70;91.10
48416;DHT22;34227;51.840;4.146;2023-07-29T00:09:07;19.60;91.10
48416;DHT22;34227;51.840;4.146;2023-07-29T00:11:33;19.60;91.10
48416;DHT22;34227;51.840;4.146;2023-07-29T00:14:00;19.60;91.10
48416;DHT22;34227;51.840;4.146;2023-07-29T00:16:25;19.60;91.10
48416;DHT22;34227;51.840;4.146;2023-07-29T00:18:51;19.50;91.10
48416;DHT22;34227;51.840;4.146;2023-07-29T00:21:17;19.50;91.10
48416;DHT22;34227;51.840;4.146;2023-07-29T00:23:42;19.50;91.20
48416;DHT22;34227;51.840;4.146;2023-07-29T00:26:08;19.50;91.20
48416;DHT22;34227;51.840;4.146;2023-07-29T00:28:33;19.50;91.30
48416;DHT22;34227;51.840;4.146;2023-07-29T00:30:59;19.50;91.20
48416;DHT22;34227;51.840;4.146;2023-07-29T00:33:24;19.50;91.30
48416;DHT22;34227;51.840;4.146;2023-07-29T00:35:50;19.40;91.20
48416;DHT22;34227;51.840;4.146;2023-07-29T00:38:16;19.40;91.20
48416;DHT22;34227;51.840;4.146;2023-07-29T00:40:41;19.40;91.30
48416;DHT22;34227;51.840;4.146;2023-07-29T00:43:07;19.40;91.30
48416;DHT22;34227;51.840;4.146;2023-07-29T00:45:33;19.40;91.30
48416;DHT22;34227;51.840;4.146;2023-07-29T00:48:05;19.30;91.40
48416;DHT22;34227;51.840;4.146;2023-07-29T00:50:57;19.30;91.30
48416;DHT22;34227;51.840;4.146;2023-07-29T00:53:22;19.30;91.30
48416;DHT22;34227;51.840;4.146;2023-07-29T00:55:48;19.30;91.30
48416;DHT22;34227;51.840;4.146;2023-07-29T00:58:13;19.30;91.40
48416;DHT22;34227;51.840;4.146;2023-07-29T01:00:39;19.30;91.50
48416;DHT22;34227;51.840;4.146;2023-07-29T01:03:05;19.30;91.40
48416;DHT22;34227;51.840;4.146;2023-07-29T01:05:32;19.20;91.50
48416;DHT22;34227;51.840;4.146;2023-07-29T01:08:15;19.20;91.50
48416;DHT22;34227;51.840;4.146;2023-07-29T01:18:05;19.20;91.40
48416;DHT22;34227;51.840;4.146;2023-07-29T01:20:33;19.10;91.40
48416;DHT22;34227;51.840;4.146;2023-07-29T01:22:59;19.10;91.50
48416;DHT22;34227;51.840;4.146;2023-07-29T01:25:25;19.10;91.50
48416;DHT22;34227;51.840;4.146;2023-07-29T01:27:51;19.10;91.40
48416;DHT22;34227;51.840;4.146;2023-07-29T01:30:17;19.10;91.40
48416;DHT22;34227;51.840;4.146;2023-07-29T01:32:44;19.10;91.70
48416;DHT22;34227;51.840;4.146;2023-07-29T01:35:28;19.00;91.50
48416;DHT22;34227;51.840;4.146;2023-07-29T01:38:00;19.00;91.50
48416;DHT22;34227;51.840;4.146;2023-07-29T01:40:27;19.00;91.50
48416;DHT22;34227;51.840;4.146;2023-07-29T01:42:53;19.00;91.50
48416;DHT22;34227;51.840;4.146;2023-07-29T01:45:20;18.90;91.50
48416;DHT22;34227;51.840;4.146;2023-07-29T01:50:13;18.90;91.30
48416;DHT22;34227;51.840;4.146;2023-07-29T01:52:39;18.80;91.70
48416;DHT22;34227;51.840;4.146;2023-07-29T01:55:05;18.80;91.60
48416;DHT22;34227;51.840;4.146;2023-07-29T01:57:30;18.80;91.70
48416;DHT22;34227;51.840;4.146;2023-07-29T01:59:56;18.80;91.70
48416;DHT22;34227;51.840;4.146;2023-07-29T02:02:22;18.80;91.70
48416;DHT22;34227;51.840;4.146;2023-07-29T02:04:47;18.70;91.70
48416;DHT22;34227;51.840;4.146;2023-07-29T02:07:17;18.70;91.70
48416;DHT22;34227;51.840;4.146;2023-07-29T02:09:42;18.70;91.70
48416;DHT22;34227;51.840;4.146;2023-07-29T02:12:08;18.60;91.70
48416;DHT22;34227;51.840;4.146;2023-07-29T02:14:34;18.60;91.70
48416;DHT22;34227;51.840;4.146;2023-07-29T02:16:59;18.60;91.70
48416;DHT22;34227;51.840;4.146;2023-07-29T02:19:25;18.60;91.80
48416;DHT22;34227;51.840;4.146;2023-07-29T02:21:50;18.60;91.70
48416;DHT22;34227;51.840;4.146;2023-07-29T02:24:16;18.60;91.80
48416;DHT22;34227;51.840;4.146;2023-07-29T02:26:41;18.50;91.80
48416;DHT22;34227;51.840;4.146;2023-07-29T02:29:07;18.50;91.80
48416;DHT22;34227;51.840;4.146;2023-07-29T02:31:32;18.50;91.80
48416;DHT22;34227;51.840;4.146;2023-07-29T02:33:59;18.50;91.80
48416;DHT22;34227;51.840;4.146;2023-07-29T02:36:25;18.50;91.90
48416;DHT22;34227;51.840;4.146;2023-07-29T02:38:51;18.50;91.90
48416;DHT22;34227;51.840;4.146;2023-07-29T02:41:16;18.40;91.90
48416;DHT22;34227;51.840;4.146;2023-07-29T02:43:42;18.40;91.90
48416;DHT22;34227;51.840;4.146;2023-07-29T02:46:08;18.40;92.00
48416;DHT22;34227;51.840;4.146;2023-07-29T02:48:34;18.40;91.90
48416;DHT22;34227;51.840;4.146;2023-07-29T02:51:00;18.40;91.90
48416;DHT22;34227;51.840;4.146;2023-07-29T02:53:25;18.30;92.10
48416;DHT22;34227;51.840;4.146;2023-07-29T02:55:51;18.30;92.10
48416;DHT22;34227;51.840;4.146;2023-07-29T02:58:16;18.30;92.10
48416;DHT22;34227;51.840;4.146;2023-07-29T03:00:42;18.30;92.10
48416;DHT22;34227;51.840;4.146;2023-07-29T03:03:08;18.30;92.10
48416;DHT22;34227;51.840;4.146;2023-07-29T03:05:34;18.30;92.10
48416;DHT22;34227;51.840;4.146;2023-07-29T03:08:00;18.30;92.10
48416;DHT22;34227;51.840;4.146;2023-07-29T03:10:25;18.30;92.10
48416;DHT22;34227;51.840;4.146;2023-07-29T03:12:53;18.30;92.10
48416;DHT22;34227;51.840;4.146;2023-07-29T03:15:19;18.30;92.20
48416;DHT22;34227;51.840;4.146;2023-07-29T03:17:46;18.20;92.20
48416;DHT22;34227;51.840;4.146;2023-07-29T03:20:11;18.20;92.30
48416;DHT22;34227;51.840;4.146;2023-07-29T03:22:37;18.20;92.30
48416;DHT22;34227;51.840;4.146;2023-07-29T03:25:03;18.20;92.20
48416;DHT22;34227;51.840;4.146;2023-07-29T03:27:28;18.20;92.30
48416;DHT22;34227;51.840;4.146;2023-07-29T03:29:54;18.20;92.30
48416;DHT22;34227;51.840;4.146;2023-07-29T03:32:19;18.20;92.40
48416;DHT22;34227;51.840;4.146;2023-07-29T03:34:45;18.20;92.40
48416;DHT22;34227;51.840;4.146;2023-07-29T03:37:11;18.10;92.40
48416;DHT22;34227;51.840;4.146;2023-07-29T03:39:36;18.20;92.40
48416;DHT22;34227;51.840;4.146;2023-07-29T03:42:02;18.10;92.40
48416;DHT22;34227;51.840;4.146;2023-07-29T03:44:28;18.10;92.50
48416;DHT22;34227;51.840;4.146;2023-07-29T03:46:54;18.10;92.50
48416;DHT22;34227;51.840;4.146;2023-07-29T03:49:19;18.10;92.60
48416;DHT22;34227;51.840;4.146;2023-07-29T03:51:45;18.10;92.50
48416;DHT22;34227;51.840;4.146;2023-07-29T03:54:11;18.10;92.50
48416;DHT22;34227;51.840;4.146;2023-07-29T03:56:36;18.10;92.50
48416;DHT22;34227;51.840;4.146;2023-07-29T03:59:06;18.10;92.50
48416;DHT22;34227;51.840;4.146;2023-07-29T04:01:32;18.10;92.50
48416;DHT22;34227;51.840;4.146;2023-07-29T04:03:58;18.10;92.50
48416;DHT22;34227;51.840;4.146;2023-07-29T04:06:24;18.10;92.50
48416;DHT22;34227;51.840;4.146;2023-07-29T04:08:49;18.10;92.60
48416;DHT22;34227;51.840;4.146;2023-07-29T04:11:15;18.00;92.60
48416;DHT22;34227;51.840;4.146;2023-07-29T04:13:40;18.10;92.70
48416;DHT22;34227;51.840;4.146;2023-07-29T04:16:06;18.10;92.70
48416;DHT22;34227;51.840;4.146;2023-07-29T04:18:32;18.10;92.80
48416;DHT22;34227;51.840;4.146;2023-07-29T04:20:58;18.00;92.70
48416;DHT22;34227;51.840;4.146;2023-07-29T04:23:23;18.00;92.70
48416;DHT22;34227;51.840;4.146;2023-07-29T04:25:49;18.10;92.70
48416;DHT22;34227;51.840;4.146;2023-07-29T04:28:15;18.00;92.70
48416;DHT22;34227;51.840;4.146;2023-07-29T04:30:41;18.10;92.80
48416;DHT22;34227;51.840;4.146;2023-07-29T04:33:06;18.00;92.80
48416;DHT22;34227;51.840;4.146;2023-07-29T04:35:32;18.00;92.90
48416;DHT22;34227;51.840;4.146;2023-07-29T04:37:58;18.00;93.00
48416;DHT22;34227;51.840;4.146;2023-07-29T04:40:23;18.00;93.00
48416;DHT22;34227;51.840;4.146;2023-07-29T04:42:49;18.10;93.00
48416;DHT22;34227;51.840;4.146;2023-07-29T04:45:15;18.00;93.00
48416;DHT22;34227;51.840;4.146;2023-07-29T04:47:41;18.00;93.00
48416;DHT22;34227;51.840;4.146;2023-07-29T04:50:07;18.10;92.90
48416;DHT22;34227;51.840;4.146;2023-07-29T04:52:32;18.10;92.90
48416;DHT22;34227;51.840;4.146;2023-07-29T04:54:58;18.00;92.80
48416;DHT22;34227;51.840;4.146;2023-07-29T04:57:23;18.10;93.00
48416;DHT22;34227;51.840;4.146;2023-07-29T04:59:49;18.10;93.10
48416;DHT22;34227;51.840;4.146;2023-07-29T05:02:15;18.10;93.10
48416;DHT22;34227;51.840;4.146;2023-07-29T05:04:40;18.10;93.20
48416;DHT22;34227;51.840;4.146;2023-07-29T05:07:06;18.10;93.20
48416;DHT22;34227;51.840;4.146;2023-07-29T05:09:31;18.10;93.00
48416;DHT22;34227;51.840;4.146;2023-07-29T05:11:57;18.10;93.00
48416;DHT22;34227;51.840;4.146;2023-07-29T05:14:22;18.10;93.40
48416;DHT22;34227;51.840;4.146;2023-07-29T05:16:48;18.10;93.20
48416;DHT22;34227;51.840;4.146;2023-07-29T05:19:14;18.10;93.40
48416;DHT22;34227;51.840;4.146;2023-07-29T05:21:40;18.20;93.30
48416;DHT22;34227;51.840;4.146;2023-07-29T05:24:06;18.20;93.20
48416;DHT22;34227;51.840;4.146;2023-07-29T05:26:31;18.20;93.10
48416;DHT22;34227;51.840;4.146;2023-07-29T05:28:57;18.20;93.30
48416;DHT22;34227;51.840;4.146;2023-07-29T05:31:22;18.20;93.40
48416;DHT22;34227;51.840;4.146;2023-07-29T05:33:48;18.20;93.30
48416;DHT22;34227;51.840;4.146;2023-07-29T05:36:14;18.20;93.50
48416;DHT22;34227;51.840;4.146;2023-07-29T05:38:39;18.30;93.30
48416;DHT22;34227;51.840;4.146;2023-07-29T05:43:53;18.30;93.40
48416;DHT22;34227;51.840;4.146;2023-07-29T05:46:21;18.40;93.50
48416;DHT22;34227;51.840;4.146;2023-07-29T05:48:46;18.40;93.80
48416;DHT22;34227;51.840;4.146;2023-07-29T05:51:12;18.40;93.20
48416;DHT22;34227;51.840;4.146;2023-07-29T05:53:38;18.40;93.30
48416;DHT22;34227;51.840;4.146;2023-07-29T05:56:05;18.50;93.40
48416;DHT22;34227;51.840;4.146;2023-07-29T05:58:31;18.50;93.20
48416;DHT22;34227;51.840;4.146;2023-07-29T06:00:57;18.50;93.50
48416;DHT22;34227;51.840;4.146;2023-07-29T06:03:23;18.50;93.30
48416;DHT22;34227;51.840;4.146;2023-07-29T06:05:49;18.60;93.30
48416;DHT22;34227;51.840;4.146;2023-07-29T06:08:18;18.60;93.40
48416;DHT22;34227;51.840;4.146;2023-07-29T06:10:43;18.60;93.40
48416;DHT22;34227;51.840;4.146;2023-07-29T06:13:12;18.60;93.40
48416;DHT22;34227;51.840;4.146;2023-07-29T06:15:40;18.60;93.30
48416;DHT22;34227;51.840;4.146;2023-07-29T06:18:06;18.70;93.30
48416;DHT22;34227;51.840;4.146;2023-07-29T06:20:31;18.70;93.50
48416;DHT22;34227;51.840;4.146;2023-07-29T06:22:57;18.80;93.40
48416;DHT22;34227;51.840;4.146;2023-07-29T06:25:22;18.80;93.40
48416;DHT22;34227;51.840;4.146;2023-07-29T06:27:48;18.80;93.50
48416;DHT22;34227;51.840;4.146;2023-07-29T06:30:14;18.90;93.60
48416;DHT22;34227;51.840;4.146;2023-07-29T06:32:39;19.00;93.80
48416;DHT22;34227;51.840;4.146;2023-07-29T06:35:05;19.10;93.80
48416;DHT22;34227;51.840;4.146;2023-07-29T06:37:31;19.10;93.90
48416;DHT22;34227;51.840;4.146;2023-07-29T06:39:58;19.20;93.80
48416;DHT22;34227;51.840;4.146;2023-07-29T06:42:24;19.40;93.90
48416;DHT22;34227;51.840;4.146;2023-07-29T06:44:49;19.50;93.70
48416;DHT22;34227;51.840;4.146;2023-07-29T06:47:15;19.60;93.60
48416;DHT22;34227;51.840;4.146;2023-07-29T06:49:41;19.70;93.80
48416;DHT22;34227;51.840;4.146;2023-07-29T06:52:06;19.80;94.10
48416;DHT22;34227;51.840;4.146;2023-07-29T06:54:32;19.90;93.50
48416;DHT22;34227;51.840;4.146;2023-07-29T06:56:57;20.10;93.50
48416;DHT22;34227;51.840;4.146;2023-07-29T06:59:23;20.20;93.20
48416;DHT22;34227;51.840;4.146;2023-07-29T07:01:52;20.30;93.30
48416;DHT22;34227;51.840;4.146;2023-07-29T07:04:20;20.40;93.10
48416;DHT22;34227;51.840;4.146;2023-07-29T07:06:47;20.50;92.90
48416;DHT22;34227;51.840;4.146;2023-07-29T07:09:16;20.50;92.90
48416;DHT22;34227;51.840;4.146;2023-07-29T07:11:42;20.60;93.10
48416;DHT22;34227;51.840;4.146;2023-07-29T07:14:07;20.70;92.90
48416;DHT22;34227;51.840;4.146;2023-07-29T07:16:35;20.80;92.90
48416;DHT22;34227;51.840;4.146;2023-07-29T07:19:02;20.90;92.80
48416;DHT22;34227;51.840;4.146;2023-07-29T07:21:28;21.00;92.70
48416;DHT22;34227;51.840;4.146;2023-07-29T07:23:53;21.00;92.50
48416;DHT22;34227;51.840;4.146;2023-07-29T07:26:19;21.10;92.40
48416;DHT22;34227;51.840;4.146;2023-07-29T07:28:44;21.10;92.50
48416;DHT22;34227;51.840;4.146;2023-07-29T07:31:10;21.20;92.50
48416;DHT22;34227;51.840;4.146;2023-07-29T07:33:36;21.30;92.50
48416;DHT22;34227;51.840;4.146;2023-07-29T07:36:01;21.40;92.40
48416;DHT22;34227;51.840;4.146;2023-07-29T07:38:27;21.40;92.30
48416;DHT22;34227;51.840;4.146;2023-07-29T07:40:56;21.50;92.20
48416;DHT22;34227;51.840;4.146;2023-07-29T07:43:22;21.60;92.10
48416;DHT22;34227;51.840;4.146;2023-07-29T07:45:47;21.70;92.70
48416;DHT22;34227;51.840;4.146;2023-07-29T07:48:13;21.80;92.80
48416;DHT22;34227;51.840;4.146;2023-07-29T07:50:39;22.00;92.70
48416;DHT22;34227;51.840;4.146;2023-07-29T07:53:05;22.20;92.80
48416;DHT22;34227;51.840;4.146;2023-07-29T07:55:30;22.40;92.60
48416;DHT22;34227;51.840;4.146;2023-07-29T07:57:56;22.70;92.50
48416;DHT22;34227;51.840;4.146;2023-07-29T08:00:21;22.80;92.10
48416;DHT22;34227;51.840;4.146;2023-07-29T08:02:47;23.00;92.10
48416;DHT22;34227;51.840;4.146;2023-07-29T08:05:12;23.10;92.30
48416;DHT22;34227;51.840;4.146;2023-07-29T08:07:38;23.40;92.30
48416;DHT22;34227;51.840;4.146;2023-07-29T08:10:04;23.60;92.10
48416;DHT22;34227;51.840;4.146;2023-07-29T08:12:29;24.00;92.10
48416;DHT22;34227;51.840;4.146;2023-07-29T08:14:55;24.20;91.70
48416;DHT22;34227;51.840;4.146;2023-07-29T08:17:20;24.40;91.40
48416;DHT22;34227;51.840;4.146;2023-07-29T08:19:46;24.60;91.00
48416;DHT22;34227;51.840;4.146;2023-07-29T08:22:15;24.80;91.00
48416;DHT22;34227;51.840;4.146;2023-07-29T08:24:42;25.00;90.80
48416;DHT22;34227;51.840;4.146;2023-07-29T08:27:25;25.10;90.70
48416;DHT22;34227;51.840;4.146;2023-07-29T08:29:51;25.30;90.00
48416;DHT22;34227;51.840;4.146;2023-07-29T08:32:21;25.30;90.00
48416;DHT22;34227;51.840;4.146;2023-07-29T08:34:47;25.40;89.60
48416;DHT22;34227;51.840;4.146;2023-07-29T08:37:13;25.50;89.00
48416;DHT22;34227;51.840;4.146;2023-07-29T08:39:39;25.50;89.00
48416;DHT22;34227;51.840;4.146;2023-07-29T08:42:04;25.40;88.70
48416;DHT22;34227;51.840;4.146;2023-07-29T08:44:40;25.50;88.30
48416;DHT22;34227;51.840;4.146;2023-07-29T08:47:05;25.40;87.80
48416;DHT22;34227;51.840;4.146;2023-07-29T08:49:31;25.40;87.40
48416;DHT22;34227;51.840;4.146;2023-07-29T08:51:57;25.40;87.40
48416;DHT22;34227;51.840;4.146;2023-07-29T08:54:34;25.30;87.10
48416;DHT22;34227;51.840;4.146;2023-07-29T08:57:00;25.30;86.90
48416;DHT22;34227;51.840;4.146;2023-07-29T08:59:26;25.30;87.00
48416;DHT22;34227;51.840;4.146;2023-07-29T09:01:52;25.20;87.00
48416;DHT22;34227;51.840;4.146;2023-07-29T09:04:22;25.20;87.00
48416;DHT22;34227;51.840;4.146;2023-07-29T09:06:50;25.10;86.90
48416;DHT22;34227;51.840;4.146;2023-07-29T09:09:16;25.10;87.00
48416;DHT22;34227;51.840;4.146;2023-07-29T09:11:41;25.00;87.00
48416;DHT22;34227;51.840;4.146;2023-07-29T09:14:07;25.00;87.10
48416;DHT22;34227;51.840;4.146;2023-07-29T09:16:33;25.00;87.30
48416;DHT22;34227;51.840;4.146;2023-07-29T09:19:01;24.90;87.30
48416;DHT22;34227;51.840;4.146;2023-07-29T09:21:29;24.90;87.40
48416;DHT22;34227;51.840;4.146;2023-07-29T09:23:55;24.80;87.40
48416;DHT22;34227;51.840;4.146;2023-07-29T09:26:24;24.80;87.70
48416;DHT22;34227;51.840;4.146;2023-07-29T09:28:59;24.80;88.00
48416;DHT22;34227;51.840;4.146;2023-07-29T09:31:28;24.80;88.20
48416;DHT22;34227;51.840;4.146;2023-07-29T09:33:57;24.90;88.40
48416;DHT22;34227;51.840;4.146;2023-07-29T09:36:24;24.90;88.40
48416;DHT22;34227;51.840;4.146;2023-07-29T09:38:58;24.90;88.20
48416;DHT22;34227;51.840;4.146;2023-07-29T09:41:24;25.00;88.10
48416;DHT22;34227;51.840;4.146;2023-07-29T09:43:57;24.90;87.90
48416;DHT22;34227;51.840;4.146;2023-07-29T09:46:31;24.90;87.90
48416;DHT22;34227;51.840;4.146;2023-07-29T09:48:58;24.90;88.00
48416;DHT22;34227;51.840;4.146;2023-07-29T09:51:30;24.90;88.10
48416;DHT22;34227;51.840;4.146;2023-07-29T09:54:02;24.80;88.00
48416;DHT22;34227;51.840;4.146;2023-07-29T09:56:27;24.70;88.10
48416;DHT22;34227;51.840;4.146;2023-07-29T09:58:55;24.70;88.30
48416;DHT22;34227;51.840;4.146;2023-07-29T10:01:21;24.60;88.60
48416;DHT22;34227;51.840;4.146;2023-07-29T10:03:46;24.50;88.70
48416;DHT22;34227;51.840;4.146;2023-07-29T10:06:12;24.40;88.90
48416;DHT22;34227;51.840;4.146;2023-07-29T10:08:39;24.30;89.00
48416;DHT22;34227;51.840;4.146;2023-07-29T10:11:06;24.20;89.10
48416;DHT22;34227;51.840;4.146;2023-07-29T10:13:35;24.00;89.40
48416;DHT22;34227;51.840;4.146;2023-07-29T10:16:01;23.90;89.60
48416;DHT22;34227;51.840;4.146;2023-07-29T10:18:27;23.90;89.90
48416;DHT22;34227;51.840;4.146;2023-07-29T10:20:53;23.70;90.10
48416;DHT22;34227;51.840;4.146;2023-07-29T10:23:19;23.60;90.10
48416;DHT22;34227;51.840;4.146;2023-07-29T10:25:47;23.60;90.30
48416;DHT22;34227;51.840;4.146;2023-07-29T10:28:14;23.50;90.40
48416;DHT22;34227;51.840;4.146;2023-07-29T10:30:41;23.40;90.50
48416;DHT22;34227;51.840;4.146;2023-07-29T10:33:06;23.10;92.40
48416;DHT22;34227;51.840;4.146;2023-07-29T10:35:33;22.60;93.90
48416;DHT22;34227;51.840;4.146;2023-07-29T10:37:59;22.30;94.70
48416;DHT22;34227;51.840;4.146;2023-07-29T10:40:25;22.10;95.50
48416;DHT22;34227;51.840;4.146;2023-07-29T10:45:43;22.30;96.90
48416;DHT22;34227;51.840;4.146;2023-07-29T10:48:12;22.40;96.30
48416;DHT22;34227;51.840;4.146;2023-07-29T10:50:38;22.40;95.70
48416;DHT22;34227;51.840;4.146;2023-07-29T10:53:04;22.60;95.90
48416;DHT22;34227;51.840;4.146;2023-07-29T10:58:15;22.80;95.40
48416;DHT22;34227;51.840;4.146;2023-07-29T11:00:42;22.90;95.10
48416;DHT22;34227;51.840;4.146;2023-07-29T11:03:09;22.90;95.00
48416;DHT22;34227;51.840;4.146;2023-07-29T11:05:53;22.80;95.40
48416;DHT22;34227;51.840;4.146;2023-07-29T11:08:30;22.90;95.10
48416;DHT22;34227;51.840;4.146;2023-07-29T11:13:28;22.80;95.10
48416;DHT22;34227;51.840;4.146;2023-07-29T11:15:54;22.90;95.20
48416;DHT22;34227;51.840;4.146;2023-07-29T11:18:21;22.80;95.00
48416;DHT22;34227;51.840;4.146;2023-07-29T11:20:47;22.90;95.30
48416;DHT22;34227;51.840;4.146;2023-07-29T11:23:14;22.90;94.90
48416;DHT22;34227;51.840;4.146;2023-07-29T11:25:40;22.90;95.10
48416;DHT22;34227;51.840;4.146;2023-07-29T11:28:06;22.90;94.90
48416;DHT22;34227;51.840;4.146;2023-07-29T11:30:32;22.80;94.80
48416;DHT22;34227;51.840;4.146;2023-07-29T11:32:59;22.90;94.70
48416;DHT22;34227;51.840;4.146;2023-07-29T11:35:24;22.90;94.70
48416;DHT22;34227;51.840;4.146;2023-07-29T11:37:51;23.00;94.80
48416;DHT22;34227;51.840;4.146;2023-07-29T11:40:17;23.00;94.70
48416;DHT22;34227;51.840;4.146;2023-07-29T11:45:09;23.00;94.20
48416;DHT22;34227;51.840;4.146;2023-07-29T11:47:36;23.00;94.40
48416;DHT22;34227;51.840;4.146;2023-07-29T11:50:06;23.10;94.30
48416;DHT22;34227;51.840;4.146;2023-07-29T11:52:38;23.10;93.80
48416;DHT22;34227;51.840;4.146;2023-07-29T11:55:04;23.00;93.90
48416;DHT22;34227;51.840;4.146;2023-07-29T11:57:30;23.00;93.40
48416;DHT22;34227;51.840;4.146;2023-07-29T11:59:59;23.10;93.70
48416;DHT22;34227;51.840;4.146;2023-07-29T12:02:26;23.10;93.60
48416;DHT22;34227;51.840;4.146;2023-07-29T12:04:52;23.00;94.00
48416;DHT22;34227;51.840;4.146;2023-07-29T12:07:18;22.80;94.00
48416;DHT22;34227;51.840;4.146;2023-07-29T12:09:44;22.70;94.30
48416;DHT22;34227;51.840;4.146;2023-07-29T12:12:13;22.70;94.20
48416;DHT22;34227;51.840;4.146;2023-07-29T12:14:45;22.70;93.60
48416;DHT22;34227;51.840;4.146;2023-07-29T12:17:14;22.70;93.80
48416;DHT22;34227;51.840;4.146;2023-07-29T12:19:45;22.80;93.90
48416;DHT22;34227;51.840;4.146;2023-07-29T12:22:17;22.90;93.60
48416;DHT22;34227;51.840;4.146;2023-07-29T12:24:46;22.90;93.70
48416;DHT22;34227;51.840;4.146;2023-07-29T12:27:12;23.00;93.70
48416;DHT22;34227;51.840;4.146;2023-07-29T12:29:42;23.00;93.30
48416;DHT22;34227;51.840;4.146;2023-07-29T12:32:08;22.90;93.40
48416;DHT22;34227;51.840;4.146;2023-07-29T12:34:34;22.80;93.10
48416;DHT22;34227;51.840;4.146;2023-07-29T12:37:01;23.00;93.50
48416;DHT22;34227;51.840;4.146;2023-07-29T12:39:29;22.90;93.70
48416;DHT22;34227;51.840;4.146;2023-07-29T12:44:25;23.30;92.90
48416;DHT22;34227;51.840;4.146;2023-07-29T12:46:50;23.30;92.80
48416;DHT22;34227;51.840;4.146;2023-07-29T12:49:16;23.30;91.60
48416;DHT22;34227;51.840;4.146;2023-07-29T12:51:42;23.10;92.00
48416;DHT22;34227;51.840;4.146;2023-07-29T12:54:08;23.00;92.10
48416;DHT22;34227;51.840;4.146;2023-07-29T12:56:33;23.00;92.50
48416;DHT22;34227;51.840;4.146;2023-07-29T12:59:00;23.00;92.10
48416;DHT22;34227;51.840;4.146;2023-07-29T13:01:26;23.00;91.90
48416;DHT22;34227;51.840;4.146;2023-07-29T13:03:52;23.00;91.90
48416;DHT22;34227;51.840;4.146;2023-07-29T13:06:17;23.00;92.10
48416;DHT22;34227;51.840;4.146;2023-07-29T13:08:44;22.90;91.80
48416;DHT22;34227;51.840;4.146;2023-07-29T13:11:10;22.90;91.50
48416;DHT22;34227;51.840;4.146;2023-07-29T13:13:36;22.90;91.30
48416;DHT22;34227;51.840;4.146;2023-07-29T13:16:02;22.80;91.30
48416;DHT22;34227;51.840;4.146;2023-07-29T13:18:28;22.80;91.40
48416;DHT22;34227;51.840;4.146;2023-07-29T13:20:54;22.90;91.40
48416;DHT22;34227;51.840;4.146;2023-07-29T13:23:19;23.00;91.30
48416;DHT22;34227;51.840;4.146;2023-07-29T13:25:55;23.00;90.50
48416;DHT22;34227;51.840;4.146;2023-07-29T13:28:21;23.10;90.40
48416;DHT22;34227;51.840;4.146;2023-07-29T13:30:46;23.00;90.20
48416;DHT22;34227;51.840;4.146;2023-07-29T13:33:12;23.10;89.80
48416;DHT22;34227;51.840;4.146;2023-07-29T13:35:37;23.20;90.00
48416;DHT22;34227;51.840;4.146;2023-07-29T13:38:03;23.20;88.80
48416;DHT22;34227;51.840;4.146;2023-07-29T13:40:29;23.20;88.40
48416;DHT22;34227;51.840;4.146;2023-07-29T13:42:55;23.30;88.80
48416;DHT22;34227;51.840;4.146;2023-07-29T13:45:20;23.30;88.10
48416;DHT22;34227;51.840;4.146;2023-07-29T13:47:46;23.50;89.60
48416;DHT22;34227;51.840;4.146;2023-07-29T13:50:12;23.60;88.40
48416;DHT22;34227;51.840;4.146;2023-07-29T13:52:37;23.50;86.70
48416;DHT22;34227;51.840;4.146;2023-07-29T13:55:03;23.60;86.40
48416;DHT22;34227;51.840;4.146;2023-07-29T13:57:29;23.80;86.00
48416;DHT22;34227;51.840;4.146;2023-07-29T13:59:55;23.90;84.20
48416;DHT22;34227;51.840;4.146;2023-07-29T14:02:20;23.80;85.50
48416;DHT22;34227;51.840;4.146;2023-07-29T14:04:46;24.00;86.30
48416;DHT22;34227;51.840;4.146;2023-07-29T14:07:12;24.10;86.60
48416;DHT22;34227;51.840;4.146;2023-07-29T14:09:37;24.10;86.20
48416;DHT22;34227;51.840;4.146;2023-07-29T14:12:07;24.00;86.50
48416;DHT22;34227;51.840;4.146;2023-07-29T14:14:33;24.20;87.10
48416;DHT22;34227;51.840;4.146;2023-07-29T14:16:58;24.10;86.90
48416;DHT22;34227;51.840;4.146;2023-07-29T14:19:24;24.10;86.00
48416;DHT22;34227;51.840;4.146;2023-07-29T14:21:49;24.20;86.70
48416;DHT22;34227;51.840;4.146;2023-07-29T14:24:15;24.30;86.60
48416;DHT22;34227;51.840;4.146;2023-07-29T14:26:41;24.20;86.90
48416;DHT22;34227;51.840;4.146;2023-07-29T14:29:07;24.20;88.20
48416;DHT22;34227;51.840;4.146;2023-07-29T14:31:33;24.20;87.50
48416;DHT22;34227;51.840;4.146;2023-07-29T14:33:58;24.30;86.80
48416;DHT22;34227;51.840;4.146;2023-07-29T14:36:25;24.40;86.40
48416;DHT22;34227;51.840;4.146;2023-07-29T14:38:50;24.30;85.90
48416;DHT22;34227;51.840;4.146;2023-07-29T14:41:16;24.30;86.70
48416;DHT22;34227;51.840;4.146;2023-07-29T14:43:41;24.30;86.80
48416;DHT22;34227;51.840;4.146;2023-07-29T14:46:07;24.40;85.30
48416;DHT22;34227;51.840;4.146;2023-07-29T14:48:32;24.50;85.10
48416;DHT22;34227;51.840;4.146;2023-07-29T14:50:58;24.60;84.60
48416;DHT22;34227;51.840;4.146;2023-07-29T14:53:24;24.40;80.80
48416;DHT22;34227;51.840;4.146;2023-07-29T14:55:50;24.30;80.70
48416;DHT22;34227;51.840;4.146;2023-07-29T14:58:16;24.20;81.30
48416;DHT22;34227;51.840;4.146;2023-07-29T15:00:45;24.10;79.90
48416;DHT22;34227;51.840;4.146;2023-07-29T15:03:10;24.30;77.90
48416;DHT22;34227;51.840;4.146;2023-07-29T15:05:36;24.40;77.50
48416;DHT22;34227;51.840;4.146;2023-07-29T15:08:02;24.30;77.60
48416;DHT22;34227;51.840;4.146;2023-07-29T15:10:27;24.30;77.90
48416;DHT22;34227;51.840;4.146;2023-07-29T15:12:56;24.20;78.20
48416;DHT22;34227;51.840;4.146;2023-07-29T15:15:21;24.00;79.20
48416;DHT22;34227;51.840;4.146;2023-07-29T15:17:47;24.00;80.50
48416;DHT22;34227;51.840;4.146;2023-07-29T15:20:12;23.80;81.70
48416;DHT22;34227;51.840;4.146;2023-07-29T15:22:38;23.80;82.60
48416;DHT22;34227;51.840;4.146;2023-07-29T15:25:04;23.60;83.00
48416;DHT22;34227;51.840;4.146;2023-07-29T15:27:31;23.50;84.30
48416;DHT22;34227;51.840;4.146;2023-07-29T15:29:57;23.50;83.90
48416;DHT22;34227;51.840;4.146;2023-07-29T15:32:22;23.70;83.40
48416;DHT22;34227;51.840;4.146;2023-07-29T15:34:48;23.70;83.50
48416;DHT22;34227;51.840;4.146;2023-07-29T15:37:14;23.70;83.00
48416;DHT22;34227;51.840;4.146;2023-07-29T15:39:40;23.80;82.10
48416;DHT22;34227;51.840;4.146;2023-07-29T15:42:06;23.80;82.70
48416;DHT22;34227;51.840;4.146;2023-07-29T18:20:39;22.00;84.90
48416;DHT22;34227;51.840;4.146;2023-07-29T18:23:07;22.00;84.90
48416;DHT22;34227;51.840;4.146;2023-07-29T18:25:33;21.90;85.00
48416;DHT22;34227;51.840;4.146;2023-07-29T18:27:59;21.80;85.70